Miami, FL

9:24 PM EDT on July 29, 2016 (GMT -0400)
Miami International | | Change Station

Elev 13 ft 25.79 °N, 80.32 °W | Updated 31 minutes ago

Mostly Cloudy
Mostly Cloudy
84 °F
Feels Like 90 °F
N
5
Wind Variable Wind from NW

Today
High -- | Low -- °F
--% Chance of Precip.
Yesterday
High -- | Low -- °F
Precip. -- in
Pressure 30.03 in
Visibility 10.0 miles
Clouds Few 3000 ft
Few 18000 ft
Mostly Cloudy 30000 ft
Heat Index 90 °F
Dew Point 72 °F
Humidity 67%
Rainfall 0.07 in
Snow Depth Not available.
6:46 AM 8:08 PM
Waning Crescent, 17% visible
METAR KMIA 300053Z 32004KT 10SM FEW030 FEW180 BKN300 29/22 A3003 RMK AO2 SLP169 T02890222
Pressure 30.03 in
Visibility 10.0 miles
Clouds Few 3000 ft
Few 18000 ft
Mostly Cloudy 30000 ft
Heat Index 90 °F
Dew Point 72 °F
Humidity 67%
Rainfall 0.07 in
Snow Depth Not available.
6:46 AM 8:08 PM
Waning Crescent, 17% visible
METAR KMIA 300053Z 32004KT 10SM FEW030 FEW180 BKN300 29/22 A3003 RMK AO2 SLP169 T02890222

10-Day Weather Forecast

Almanac

Astronomy

Jul. 29, 2016 Rise Set
Actual Time
Civil Twilight
Nautical Twilight
Astronomical Twilight
Moon
Length of Visible Light
Length of Day
Tomorrow will be .
, % of the Moon is Illuminated

Today's Extremes

State Highs State Lows

Community

WunderPhotos

Upload Photos

1,928,476 photos uploaded!

WunderBlog® & News

Nearby

Air Quality

  Air Quality AQ Index Pollutant
Not available.

Snow Depth

Station Depth Elevation

Earthquake Activity

City Distance Mag. Time & Date
Minimum magnitude displayed is 2.5.

Coastal Water Temperatures

Place Temperature

Stations

Nearby Weather Stations

Station Location Temp. Windchill Dew Point Humidity Wind Precip. Elev Updated Type
                   

Watches & Warnings

There are currently no watches in effect.